CMA CGM Herodote — MFEP — position and weather

sailwx.info

Track history (hours):
 
Tides and Currents Weather Stations Pressure Air Temp Water Temp Dewpoint Dewpoint Depression Visibility Wind Speed Wind Dir Waves Ship Positions

CMA CGM Herodote

Last reported at 2015-Feb-14 17:10 UTC. Time now 2015-Mar-05 02:37 UTC.
Position N 35°50' W 025°59'.
Warning: this ship's position is 18 days out of date.

Length 170 m; draft 9.5 m.

Type: Ship (hazmat cat A). MMSI: 235051085.

Date/timePositionNaut miles runAvg speedWind from/ knotsBaromVisibWave heightAir tempDewpointWater temp
2015-Feb-14 17:10N 35°50' W 025°59'1118.8
2015-Feb-14 16:33N 35°57' W 025°48'1918.7
2015-Feb-14 15:34N 36°10' W 025°31'1918.8
2015-Feb-14 14:33N 36°22' W 025°12'1918.9
2015-Feb-14 13:33N 36°34' W 024°55'1918.9
2015-Feb-14 12:34N 36°46' W 024°37'1919.0
2015-Feb-14 11:33N 36°59' W 024°19'1919.1
2015-Feb-14 10:34N 37°11' W 024°01'1918.9
2015-Feb-14 09:34N 37°24' W 023°43'10018.7
2015-Feb-14 04:14N 38°29' W 022°08'1318.2
2015-Feb-14 03:33N 38°38' W 021°56'  
2015-Feb-11 16:06N 49°58' W 001°47'1419.9
2015-Feb-11 15:24N 49°53' W 001°27'3418.3
2015-Feb-11 13:33N 49°39' W 000°39'1717.5
2015-Feb-11 12:34N 49°33' W 000°14'1413.6
2015-Feb-11 11:34N 49°29' E 000°06'3 2.6
2015-Feb-11 10:31N 49°29' E 000°10'0 0.0
2015-Feb-11 09:31N 49°29' E 000°10'0 0.0
2015-Feb-11 08:31N 49°29' E 000°10'0 0.0
2015-Feb-11 07:31N 49°29' E 000°10'0 0.0
2015-Feb-11 06:31N 49°29' E 000°10'0 0.0
2015-Feb-11 05:31N 49°29' E 000°10'0 0.0
2015-Feb-11 04:28N 49°29' E 000°10'0 0.0
2015-Feb-11 03:31N 49°29' E 000°10'0 0.0
2015-Feb-11 02:31N 49°29' E 000°10'0 0.0
2015-Feb-11 01:31N 49°29' E 000°10'0 0.0
2015-Feb-11 00:31N 49°29' E 000°10'0 0.0
2015-Feb-10 23:31N 49°29' E 000°10'0 0.0
2015-Feb-10 22:31N 49°29' E 000°10'0 0.0
2015-Feb-10 21:31N 49°29' E 000°10'0 0.0
2015-Feb-10 20:31N 49°29' E 000°10'0 0.0
2015-Feb-10 19:31N 49°29' E 000°10'0 0.0
2015-Feb-10 18:31N 49°29' E 000°10'0 0.0
2015-Feb-10 17:31N 49°29' E 000°10'0 0.0
2015-Feb-10 16:31N 49°29' E 000°10'0 0.0
2015-Feb-10 15:31N 49°29' E 000°10'0 0.0
2015-Feb-10 14:31N 49°29' E 000°10'0 0.0
2015-Feb-10 13:31N 49°29' E 000°10'1 1.5
2015-Feb-10 12:33N 49°28' E 000°08'6 6.2
2015-Feb-10 11:32N 49°29' W 000°02'0 0.1
2015-Feb-10 10:29N 49°29' W 000°02'0 0.1
2015-Feb-10 09:32N 49°29' W 000°02'0 0.1
2015-Feb-10 08:32N 49°29' W 000°02'0 0.0
2015-Feb-10 07:32N 49°29' W 000°02'0 0.0
2015-Feb-10 06:32N 49°29' W 000°02'0 0.0
2015-Feb-10 05:32N 49°29' W 000°02'0 0.0
2015-Feb-10 04:32N 49°29' W 000°02'0 0.0
2015-Feb-10 03:32N 49°29' W 000°02'0 0.1
2015-Feb-10 02:33N 49°29' W 000°02'0 0.1
2015-Feb-10 01:32N 49°29' W 000°02'2 2.1
2015-Feb-10 00:33N 49°28' E 000°00'1211.6
2015-Feb-09 23:33N 49°26' E 000°18'9 9.2
2015-Feb-09 22:32N 49°29' E 000°31'6 0.2
2015-Feb-08 23:12N 49°28' E 000°40'6 9.7
2015-Feb-08 22:33N 49°29' E 000°30'1515.1
2015-Feb-08 21:33N 49°26' E 000°08'1111.0
2015-Feb-08 20:33N 49°30' W 000°08'9 8.7
2015-Feb-08 19:33N 49°31' W 000°21'3 3.2
2015-Feb-08 18:33N 49°30' W 000°26'1 0.6
2015-Feb-08 17:33N 49°30' W 000°25'2 1.8
2015-Feb-08 16:33N 49°31' W 000°23'6 6.5
2015-Feb-08 15:33N 49°38' W 000°24'10 9.7
2015-Feb-08 14:33N 49°45' W 000°14'5410.7
2015-Feb-08 09:33N 50°33' E 000°23'1111.6
2015-Feb-08 08:34N 50°38' E 000°39'1313.1
2015-Feb-08 07:33N 50°47' E 000°55'1313.1
2015-Feb-08 06:32N 50°56' E 001°11'1212.4
2015-Feb-08 05:33N 51°04' E 001°26'1110.9
2015-Feb-08 04:33N 51°11' E 001°38'1010.0
2015-Feb-08 03:34N 51°21' E 001°35'10 9.9
2015-Feb-08 02:34N 51°28' E 001°23'1312.9
2015-Feb-08 01:33N 51°30' E 001°03'1414.1
2015-Feb-08 00:33N 51°30' E 000°40'1010.4
2015-Feb-07 23:33N 51°27' E 000°24'3 2.6
2015-Feb-07 22:33N 51°27' E 000°20'0 0.0
2015-Feb-07 21:34N 51°27' E 000°20'0 0.0
2015-Feb-07 20:34N 51°27' E 000°20'0 0.0
2015-Feb-07 19:33N 51°27' E 000°20'0 0.0
2015-Feb-07 18:33N 51°27' E 000°20'0 0.0
2015-Feb-07 17:33N 51°27' E 000°20'0 0.0
2015-Feb-07 16:34N 51°27' E 000°20'0 0.0
2015-Feb-07 15:33N 51°27' E 000°20'0 0.0
2015-Feb-07 14:33N 51°27' E 000°20'0 0.0
2015-Feb-07 13:30N 51°27' E 000°20'0 0.0
2015-Feb-07 12:33N 51°27' E 000°20'0 0.0
2015-Feb-07 11:31N 51°27' E 000°20'0 0.0
2015-Feb-07 10:32N 51°27' E 000°20'5 5.2
2015-Feb-07 09:33N 51°29' E 000°28'1111.0
2015-Feb-07 08:34N 51°29' E 000°45'1514.7
2015-Feb-07 07:34N 51°33' E 001°08'1615.7
2015-Feb-07 06:33N 51°43' E 001°28'1211.7
2015-Feb-07 05:34N 51°51' E 001°41'8 8.1
2015-Feb-07 04:33N 51°45' E 001°49'6 6.5
2015-Feb-07 03:33N 51°39' E 001°49'5 5.0
2015-Feb-07 02:33N 51°34' E 001°45'5 4.9
2015-Feb-07 01:33N 51°31' E 001°39'5 5.4
2015-Feb-07 00:33N 51°34' E 001°46'1110.6
2015-Feb-06 23:34N 51°40' E 002°01'1111.4
2015-Feb-06 22:33N 51°48' E 002°13'50 9.9
2015-Feb-06 17:31N 52°03' E 003°30'9 9.1
2015-Feb-06 16:33N 52°04' E 003°45'1010.1
2015-Feb-06 15:33N 52°01' E 004°00'1111.0
2015-Feb-06 14:33N 51°55' E 004°15'6 5.7
2015-Feb-06 13:31N 51°53' E 004°24'0 0.0
2015-Feb-06 12:31N 51°53' E 004°24'0 0.0
2015-Feb-06 11:31N 51°53' E 004°24'0 0.0
2015-Feb-06 10:31N 51°53' E 004°24'0 0.0
2015-Feb-06 09:28N 51°53' E 004°24'0 0.0
2015-Feb-06 08:31N 51°53' E 004°24'0 0.0
2015-Feb-06 07:28N 51°53' E 004°24'0 0.0
2015-Feb-06 06:31N 51°53' E 004°24'0 0.0
2015-Feb-06 05:28N 51°53' E 004°24'0 0.0
2015-Feb-06 04:28N 51°53' E 004°24'0 0.0
2015-Feb-06 03:32N 51°53' E 004°24'5 5.6
2015-Feb-06 02:33N 51°54' E 004°16'1110.9
2015-Feb-06 01:33N 51°60' E 004°01'10 9.6
2015-Feb-06 00:33N 51°59' E 003°45'10 9.0
2015-Feb-05 23:28N 51°56' E 003°30'3316.5
2015-Feb-05 21:29N 51°46' E 002°39'1516.3
2015-Feb-05 20:33N 51°35' E 002°23'1616.5
2015-Feb-05 19:34N 51°21' E 002°09'1615.8
2015-Feb-05 18:34N 51°09' E 001°52'1616.2
2015-Feb-05 17:33N 50°58' E 001°33'1817.1
2015-Feb-05 16:30N 50°43' E 001°19'1817.4
2015-Feb-05 15:29N 50°32' E 000°58'2116.8
2015-Feb-05 14:14N 50°24' E 000°27'24818.1
2015-Feb-05 00:33N 48°50' W 005°27'  
Track history (hours):
 
Tides and Currents Weather Stations Pressure Air Temp Water Temp Dewpoint Dewpoint Depression Visibility Wind Speed Wind Dir Waves Ship Positions

CMA CGM Herodote

Last reported at 2015-Feb-14 17:10 UTC. Time now 2015-Mar-05 02:37 UTC.
Position N 35°50' W 025°59'.
Warning: this ship's position is 18 days out of date.

Length 170 m; draft 9.5 m.

Type: Ship (hazmat cat A). MMSI: 235051085.

Date/timePositionNaut miles runAvg speedWind from/ knotsBaromVisibWave heightAir tempDewpointWater temp
2015-Feb-14 17:10N 35°50' W 025°59'1118.8
2015-Feb-14 16:33N 35°57' W 025°48'1918.7
2015-Feb-14 15:34N 36°10' W 025°31'1918.8
2015-Feb-14 14:33N 36°22' W 025°12'1918.9
2015-Feb-14 13:33N 36°34' W 024°55'1918.9
2015-Feb-14 12:34N 36°46' W 024°37'1919.0
2015-Feb-14 11:33N 36°59' W 024°19'1919.1
2015-Feb-14 10:34N 37°11' W 024°01'1918.9
2015-Feb-14 09:34N 37°24' W 023°43'10018.7
2015-Feb-14 04:14N 38°29' W 022°08'1318.2
2015-Feb-14 03:33N 38°38' W 021°56'  
2015-Feb-11 16:06N 49°58' W 001°47'1419.9
2015-Feb-11 15:24N 49°53' W 001°27'3418.3
2015-Feb-11 13:33N 49°39' W 000°39'1717.5
2015-Feb-11 12:34N 49°33' W 000°14'1413.6
2015-Feb-11 11:34N 49°29' E 000°06'3 2.6
2015-Feb-11 10:31N 49°29' E 000°10'0 0.0
2015-Feb-11 09:31N 49°29' E 000°10'0 0.0
2015-Feb-11 08:31N 49°29' E 000°10'0 0.0
2015-Feb-11 07:31N 49°29' E 000°10'0 0.0
2015-Feb-11 06:31N 49°29' E 000°10'0 0.0
2015-Feb-11 05:31N 49°29' E 000°10'0 0.0
2015-Feb-11 04:28N 49°29' E 000°10'0 0.0
2015-Feb-11 03:31N 49°29' E 000°10'0 0.0
2015-Feb-11 02:31N 49°29' E 000°10'0 0.0
2015-Feb-11 01:31N 49°29' E 000°10'0 0.0
2015-Feb-11 00:31N 49°29' E 000°10'0 0.0
2015-Feb-10 23:31N 49°29' E 000°10'0 0.0
2015-Feb-10 22:31N 49°29' E 000°10'0 0.0
2015-Feb-10 21:31N 49°29' E 000°10'0 0.0
2015-Feb-10 20:31N 49°29' E 000°10'0 0.0
2015-Feb-10 19:31N 49°29' E 000°10'0 0.0
2015-Feb-10 18:31N 49°29' E 000°10'0 0.0
2015-Feb-10 17:31N 49°29' E 000°10'0 0.0
2015-Feb-10 16:31N 49°29' E 000°10'0 0.0
2015-Feb-10 15:31N 49°29' E 000°10'0 0.0
2015-Feb-10 14:31N 49°29' E 000°10'0 0.0
2015-Feb-10 13:31N 49°29' E 000°10'1 1.5
2015-Feb-10 12:33N 49°28' E 000°08'6 6.2
2015-Feb-10 11:32N 49°29' W 000°02'0 0.1
2015-Feb-10 10:29N 49°29' W 000°02'0 0.1
2015-Feb-10 09:32N 49°29' W 000°02'0 0.1
2015-Feb-10 08:32N 49°29' W 000°02'0 0.0
2015-Feb-10 07:32N 49°29' W 000°02'0 0.0
2015-Feb-10 06:32N 49°29' W 000°02'0 0.0
2015-Feb-10 05:32N 49°29' W 000°02'0 0.0
2015-Feb-10 04:32N 49°29' W 000°02'0 0.0
2015-Feb-10 03:32N 49°29' W 000°02'0 0.1
2015-Feb-10 02:33N 49°29' W 000°02'0 0.1
2015-Feb-10 01:32N 49°29' W 000°02'2 2.1
2015-Feb-10 00:33N 49°28' E 000°00'1211.6
2015-Feb-09 23:33N 49°26' E 000°18'9 9.2
2015-Feb-09 22:32N 49°29' E 000°31'6 0.2
2015-Feb-08 23:12N 49°28' E 000°40'6 9.7
2015-Feb-08 22:33N 49°29' E 000°30'1515.1
2015-Feb-08 21:33N 49°26' E 000°08'1111.0
2015-Feb-08 20:33N 49°30' W 000°08'9 8.7
2015-Feb-08 19:33N 49°31' W 000°21'3 3.2
2015-Feb-08 18:33N 49°30' W 000°26'1 0.6
2015-Feb-08 17:33N 49°30' W 000°25'2 1.8
2015-Feb-08 16:33N 49°31' W 000°23'6 6.5
2015-Feb-08 15:33N 49°38' W 000°24'10 9.7
2015-Feb-08 14:33N 49°45' W 000°14'5410.7
2015-Feb-08 09:33N 50°33' E 000°23'1111.6
2015-Feb-08 08:34N 50°38' E 000°39'1313.1
2015-Feb-08 07:33N 50°47' E 000°55'1313.1
2015-Feb-08 06:32N 50°56' E 001°11'1212.4
2015-Feb-08 05:33N 51°04' E 001°26'1110.9
2015-Feb-08 04:33N 51°11' E 001°38'1010.0
2015-Feb-08 03:34N 51°21' E 001°35'10 9.9
2015-Feb-08 02:34N 51°28' E 001°23'1312.9
2015-Feb-08 01:33N 51°30' E 001°03'1414.1
2015-Feb-08 00:33N 51°30' E 000°40'1010.4
2015-Feb-07 23:33N 51°27' E 000°24'3 2.6
2015-Feb-07 22:33N 51°27' E 000°20'0 0.0
2015-Feb-07 21:34N 51°27' E 000°20'0 0.0
2015-Feb-07 20:34N 51°27' E 000°20'0 0.0
2015-Feb-07 19:33N 51°27' E 000°20'0 0.0
2015-Feb-07 18:33N 51°27' E 000°20'0 0.0
2015-Feb-07 17:33N 51°27' E 000°20'0 0.0
2015-Feb-07 16:34N 51°27' E 000°20'0 0.0
2015-Feb-07 15:33N 51°27' E 000°20'0 0.0
2015-Feb-07 14:33N 51°27' E 000°20'0 0.0
2015-Feb-07 13:30N 51°27' E 000°20'0 0.0
2015-Feb-07 12:33N 51°27' E 000°20'0 0.0
2015-Feb-07 11:31N 51°27' E 000°20'0 0.0
2015-Feb-07 10:32N 51°27' E 000°20'5 5.2
2015-Feb-07 09:33N 51°29' E 000°28'1111.0
2015-Feb-07 08:34N 51°29' E 000°45'1514.7
2015-Feb-07 07:34N 51°33' E 001°08'1615.7
2015-Feb-07 06:33N 51°43' E 001°28'1211.7
2015-Feb-07 05:34N 51°51' E 001°41'8 8.1
2015-Feb-07 04:33N 51°45' E 001°49'6 6.5
2015-Feb-07 03:33N 51°39' E 001°49'5 5.0
2015-Feb-07 02:33N 51°34' E 001°45'5 4.9
2015-Feb-07 01:33N 51°31' E 001°39'5 5.4
2015-Feb-07 00:33N 51°34' E 001°46'1110.6
2015-Feb-06 23:34N 51°40' E 002°01'1111.4
2015-Feb-06 22:33N 51°48' E 002°13'50 9.9
2015-Feb-06 17:31N 52°03' E 003°30'9 9.1
2015-Feb-06 16:33N 52°04' E 003°45'1010.1
2015-Feb-06 15:33N 52°01' E 004°00'1111.0
2015-Feb-06 14:33N 51°55' E 004°15'6 5.7
2015-Feb-06 13:31N 51°53' E 004°24'0 0.0
2015-Feb-06 12:31N 51°53' E 004°24'0 0.0
2015-Feb-06 11:31N 51°53' E 004°24'0 0.0
2015-Feb-06 10:31N 51°53' E 004°24'0 0.0
2015-Feb-06 09:28N 51°53' E 004°24'0 0.0
2015-Feb-06 08:31N 51°53' E 004°24'0 0.0
2015-Feb-06 07:28N 51°53' E 004°24'0 0.0
2015-Feb-06 06:31N 51°53' E 004°24'0 0.0
2015-Feb-06 05:28N 51°53' E 004°24'0 0.0
2015-Feb-06 04:28N 51°53' E 004°24'0 0.0
2015-Feb-06 03:32N 51°53' E 004°24'5 5.6
2015-Feb-06 02:33N 51°54' E 004°16'1110.9
2015-Feb-06 01:33N 51°60' E 004°01'10 9.6
2015-Feb-06 00:33N 51°59' E 003°45'10 9.0
2015-Feb-05 23:28N 51°56' E 003°30'3316.5
2015-Feb-05 21:29N 51°46' E 002°39'1516.3
2015-Feb-05 20:33N 51°35' E 002°23'1616.5
2015-Feb-05 19:34N 51°21' E 002°09'1615.8
2015-Feb-05 18:34N 51°09' E 001°52'1616.2
2015-Feb-05 17:33N 50°58' E 001°33'1817.1
2015-Feb-05 16:30N 50°43' E 001°19'1817.4
2015-Feb-05 15:29N 50°32' E 000°58'2116.8
2015-Feb-05 14:14N 50°24' E 000°27'24818.1
2015-Feb-05 00:33N 48°50' W 005°27'  

Dump ship's entire track history